sensor_id;sensor_type;location;lat;lon;timestamp;temperature;humidity
3298;DHT22;1661;53.572;10.174;2023-12-20T00:00:59;7.80;90.30
3298;DHT22;1661;53.572;10.174;2023-12-20T00:03:26;7.80;90.30
3298;DHT22;1661;53.572;10.174;2023-12-20T00:05:53;7.80;90.10
3298;DHT22;1661;53.572;10.174;2023-12-20T00:08:22;7.80;90.10
3298;DHT22;1661;53.572;10.174;2023-12-20T00:10:49;7.70;90.10
3298;DHT22;1661;53.572;10.174;2023-12-20T00:13:15;7.70;90.20
3298;DHT22;1661;53.572;10.174;2023-12-20T00:15:42;7.70;90.10
3298;DHT22;1661;53.572;10.174;2023-12-20T00:18:09;7.70;90.10
3298;DHT22;1661;53.572;10.174;2023-12-20T00:20:36;7.60;90.20
3298;DHT22;1661;53.572;10.174;2023-12-20T00:23:03;7.60;90.30
3298;DHT22;1661;53.572;10.174;2023-12-20T00:25:34;7.60;90.30
3298;DHT22;1661;53.572;10.174;2023-12-20T00:28:01;7.60;90.20
3298;DHT22;1661;53.572;10.174;2023-12-20T00:30:28;7.60;90.20
3298;DHT22;1661;53.572;10.174;2023-12-20T00:32:55;7.50;90.20
3298;DHT22;1661;53.572;10.174;2023-12-20T00:35:22;7.40;90.10
3298;DHT22;1661;53.572;10.174;2023-12-20T00:37:49;7.40;90.50
3298;DHT22;1661;53.572;10.174;2023-12-20T00:40:15;7.40;90.50
3298;DHT22;1661;53.572;10.174;2023-12-20T00:42:44;7.30;90.60
3298;DHT22;1661;53.572;10.174;2023-12-20T00:45:12;7.40;90.60
3298;DHT22;1661;53.572;10.174;2023-12-20T00:47:39;7.30;90.60
3298;DHT22;1661;53.572;10.174;2023-12-20T00:50:07;7.30;90.70
3298;DHT22;1661;53.572;10.174;2023-12-20T00:52:34;7.30;90.90
3298;DHT22;1661;53.572;10.174;2023-12-20T00:55:01;7.30;90.80
3298;DHT22;1661;53.572;10.174;2023-12-20T00:57:29;7.30;90.80
3298;DHT22;1661;53.572;10.174;2023-12-20T00:59:58;7.30;90.90
3298;DHT22;1661;53.572;10.174;2023-12-20T01:02:24;7.30;91.00
3298;DHT22;1661;53.572;10.174;2023-12-20T01:04:51;7.30;91.10
3298;DHT22;1661;53.572;10.174;2023-12-20T01:07:18;7.30;91.10
3298;DHT22;1661;53.572;10.174;2023-12-20T01:09:45;7.30;91.00
3298;DHT22;1661;53.572;10.174;2023-12-20T01:12:12;7.30;91.10
3298;DHT22;1661;53.572;10.174;2023-12-20T01:14:38;7.30;91.00
3298;DHT22;1661;53.572;10.174;2023-12-20T01:17:07;7.30;91.00
3298;DHT22;1661;53.572;10.174;2023-12-20T01:19:33;7.30;91.10
3298;DHT22;1661;53.572;10.174;2023-12-20T01:22:00;7.20;91.20
3298;DHT22;1661;53.572;10.174;2023-12-20T01:24:27;7.20;91.20
3298;DHT22;1661;53.572;10.174;2023-12-20T01:26:54;7.20;91.30
3298;DHT22;1661;53.572;10.174;2023-12-20T01:29:20;7.20;91.20
3298;DHT22;1661;53.572;10.174;2023-12-20T01:31:47;7.10;91.50
3298;DHT22;1661;53.572;10.174;2023-12-20T01:34:15;7.10;91.60
3298;DHT22;1661;53.572;10.174;2023-12-20T01:36:44;7.20;91.30
3298;DHT22;1661;53.572;10.174;2023-12-20T01:39:11;7.20;91.10
3298;DHT22;1661;53.572;10.174;2023-12-20T01:41:37;7.20;90.80
3298;DHT22;1661;53.572;10.174;2023-12-20T01:44:04;7.20;90.60
3298;DHT22;1661;53.572;10.174;2023-12-20T01:46:31;7.10;90.70
3298;DHT22;1661;53.572;10.174;2023-12-20T01:48:58;7.10;90.90
3298;DHT22;1661;53.572;10.174;2023-12-20T01:51:26;7.10;91.00
3298;DHT22;1661;53.572;10.174;2023-12-20T01:53:54;7.10;90.70
3298;DHT22;1661;53.572;10.174;2023-12-20T01:56:21;7.10;90.60
3298;DHT22;1661;53.572;10.174;2023-12-20T01:58:48;7.10;90.60
3298;DHT22;1661;53.572;10.174;2023-12-20T02:01:15;7.10;90.70
3298;DHT22;1661;53.572;10.174;2023-12-20T02:03:42;7.00;90.80
3298;DHT22;1661;53.572;10.174;2023-12-20T02:06:09;7.00;91.10
3298;DHT22;1661;53.572;10.174;2023-12-20T02:08:38;6.90;91.40
3298;DHT22;1661;53.572;10.174;2023-12-20T02:11:05;6.90;91.50
3298;DHT22;1661;53.572;10.174;2023-12-20T02:13:31;6.90;91.80
3298;DHT22;1661;53.572;10.174;2023-12-20T02:15:58;6.90;91.80
3298;DHT22;1661;53.572;10.174;2023-12-20T02:18:26;6.80;91.90
3298;DHT22;1661;53.572;10.174;2023-12-20T02:20:52;6.80;92.30
3298;DHT22;1661;53.572;10.174;2023-12-20T02:23:21;6.70;92.70
3298;DHT22;1661;53.572;10.174;2023-12-20T02:25:48;6.70;92.90
3298;DHT22;1661;53.572;10.174;2023-12-20T02:28:15;6.80;92.80
3298;DHT22;1661;53.572;10.174;2023-12-20T02:30:42;6.80;92.50
3298;DHT22;1661;53.572;10.174;2023-12-20T02:33:10;6.80;92.50
3298;DHT22;1661;53.572;10.174;2023-12-20T02:35:38;6.80;92.60
3298;DHT22;1661;53.572;10.174;2023-12-20T02:38:05;6.80;92.50
3298;DHT22;1661;53.572;10.174;2023-12-20T02:40:33;6.70;92.50
3298;DHT22;1661;53.572;10.174;2023-12-20T02:43:00;6.70;92.80
3298;DHT22;1661;53.572;10.174;2023-12-20T02:45:27;6.80;92.80
3298;DHT22;1661;53.572;10.174;2023-12-20T02:47:53;6.80;92.60
3298;DHT22;1661;53.572;10.174;2023-12-20T02:50:20;6.80;92.60
3298;DHT22;1661;53.572;10.174;2023-12-20T02:52:47;6.80;92.70
3298;DHT22;1661;53.572;10.174;2023-12-20T02:55:14;6.80;92.80
3298;DHT22;1661;53.572;10.174;2023-12-20T02:57:42;6.90;92.70
3298;DHT22;1661;53.572;10.174;2023-12-20T03:00:12;7.00;92.50
3298;DHT22;1661;53.572;10.174;2023-12-20T03:02:39;7.00;92.40
3298;DHT22;1661;53.572;10.174;2023-12-20T03:05:06;7.00;92.20
3298;DHT22;1661;53.572;10.174;2023-12-20T03:07:33;7.00;92.10
3298;DHT22;1661;53.572;10.174;2023-12-20T03:10:00;7.00;92.10
3298;DHT22;1661;53.572;10.174;2023-12-20T03:12:27;7.00;91.90
3298;DHT22;1661;53.572;10.174;2023-12-20T03:14:55;7.00;92.00
3298;DHT22;1661;53.572;10.174;2023-12-20T03:17:21;7.00;92.00
3298;DHT22;1661;53.572;10.174;2023-12-20T03:19:48;6.90;91.80
3298;DHT22;1661;53.572;10.174;2023-12-20T03:22:15;6.90;91.90
3298;DHT22;1661;53.572;10.174;2023-12-20T03:24:42;6.90;91.90
3298;DHT22;1661;53.572;10.174;2023-12-20T03:27:08;6.90;92.10
3298;DHT22;1661;53.572;10.174;2023-12-20T03:29:35;6.90;91.80
3298;DHT22;1661;53.572;10.174;2023-12-20T03:32:04;6.90;91.80
3298;DHT22;1661;53.572;10.174;2023-12-20T03:34:31;6.90;91.80
3298;DHT22;1661;53.572;10.174;2023-12-20T03:36:57;6.90;91.80
3298;DHT22;1661;53.572;10.174;2023-12-20T03:39:24;6.80;91.70
3298;DHT22;1661;53.572;10.174;2023-12-20T03:41:51;6.80;92.20
3298;DHT22;1661;53.572;10.174;2023-12-20T03:44:17;6.80;92.30
3298;DHT22;1661;53.572;10.174;2023-12-20T03:46:44;6.80;91.90
3298;DHT22;1661;53.572;10.174;2023-12-20T03:49:13;6.80;92.20
3298;DHT22;1661;53.572;10.174;2023-12-20T03:51:39;6.90;92.10
3298;DHT22;1661;53.572;10.174;2023-12-20T03:54:07;7.00;91.90
3298;DHT22;1661;53.572;10.174;2023-12-20T03:56:34;7.00;91.60
3298;DHT22;1661;53.572;10.174;2023-12-20T03:59:01;7.10;91.40
3298;DHT22;1661;53.572;10.174;2023-12-20T04:01:27;7.10;91.00
3298;DHT22;1661;53.572;10.174;2023-12-20T04:03:54;7.00;90.90
3298;DHT22;1661;53.572;10.174;2023-12-20T04:06:22;7.00;90.80
3298;DHT22;1661;53.572;10.174;2023-12-20T04:08:49;7.00;90.70
3298;DHT22;1661;53.572;10.174;2023-12-20T04:11:16;6.90;90.70
3298;DHT22;1661;53.572;10.174;2023-12-20T04:13:42;7.00;90.60
3298;DHT22;1661;53.572;10.174;2023-12-20T04:16:09;7.00;90.80
3298;DHT22;1661;53.572;10.174;2023-12-20T04:18:36;7.00;90.70
3298;DHT22;1661;53.572;10.174;2023-12-20T04:21:03;7.00;90.80
3298;DHT22;1661;53.572;10.174;2023-12-20T04:23:31;7.00;90.90
3298;DHT22;1661;53.572;10.174;2023-12-20T04:25:58;7.10;91.10
3298;DHT22;1661;53.572;10.174;2023-12-20T04:28:25;7.10;91.00
3298;DHT22;1661;53.572;10.174;2023-12-20T04:30:51;7.00;91.10
3298;DHT22;1661;53.572;10.174;2023-12-20T04:33:18;7.00;91.10
3298;DHT22;1661;53.572;10.174;2023-12-20T04:35:45;6.90;91.40
3298;DHT22;1661;53.572;10.174;2023-12-20T04:38:12;6.90;91.60
3298;DHT22;1661;53.572;10.174;2023-12-20T04:40:40;6.90;91.50
3298;DHT22;1661;53.572;10.174;2023-12-20T04:43:07;6.80;91.50
3298;DHT22;1661;53.572;10.174;2023-12-20T04:45:34;6.80;91.90
3298;DHT22;1661;53.572;10.174;2023-12-20T04:48:01;6.80;92.10
3298;DHT22;1661;53.572;10.174;2023-12-20T04:50:29;6.80;92.10
3298;DHT22;1661;53.572;10.174;2023-12-20T04:52:56;6.80;91.90
3298;DHT22;1661;53.572;10.174;2023-12-20T04:55:23;6.80;92.20
3298;DHT22;1661;53.572;10.174;2023-12-20T04:57:51;6.80;92.20
3298;DHT22;1661;53.572;10.174;2023-12-20T05:00:18;6.80;92.20
3298;DHT22;1661;53.572;10.174;2023-12-20T05:02:45;6.80;92.10
3298;DHT22;1661;53.572;10.174;2023-12-20T05:05:11;6.80;92.30
3298;DHT22;1661;53.572;10.174;2023-12-20T05:07:40;6.70;92.20
3298;DHT22;1661;53.572;10.174;2023-12-20T05:10:08;6.70;92.40
3298;DHT22;1661;53.572;10.174;2023-12-20T05:12:34;6.70;92.50
3298;DHT22;1661;53.572;10.174;2023-12-20T05:15:04;6.80;92.60
3298;DHT22;1661;53.572;10.174;2023-12-20T05:17:31;6.70;92.60
3298;DHT22;1661;53.572;10.174;2023-12-20T05:19:58;6.80;92.70
3298;DHT22;1661;53.572;10.174;2023-12-20T05:22:25;6.80;92.40
3298;DHT22;1661;53.572;10.174;2023-12-20T05:24:53;6.80;92.50
3298;DHT22;1661;53.572;10.174;2023-12-20T05:27:19;6.80;92.50
3298;DHT22;1661;53.572;10.174;2023-12-20T05:29:46;6.90;92.60
3298;DHT22;1661;53.572;10.174;2023-12-20T05:32:14;6.90;92.30
3298;DHT22;1661;53.572;10.174;2023-12-20T05:34:41;6.90;92.20
3298;DHT22;1661;53.572;10.174;2023-12-20T05:37:08;6.90;92.40
3298;DHT22;1661;53.572;10.174;2023-12-20T05:39:34;6.90;92.20
3298;DHT22;1661;53.572;10.174;2023-12-20T05:42:01;6.80;92.10
3298;DHT22;1661;53.572;10.174;2023-12-20T05:44:28;6.80;92.20
3298;DHT22;1661;53.572;10.174;2023-12-20T05:46:55;6.80;92.50
3298;DHT22;1661;53.572;10.174;2023-12-20T05:49:23;6.80;92.50
3298;DHT22;1661;53.572;10.174;2023-12-20T05:51:50;7.00;92.30
3298;DHT22;1661;53.572;10.174;2023-12-20T05:54:17;7.00;92.00
3298;DHT22;1661;53.572;10.174;2023-12-20T05:56:43;6.90;92.30
3298;DHT22;1661;53.572;10.174;2023-12-20T05:59:10;6.80;92.10
3298;DHT22;1661;53.572;10.174;2023-12-20T06:01:37;6.70;92.70
3298;DHT22;1661;53.572;10.174;2023-12-20T06:04:04;6.70;93.40
3298;DHT22;1661;53.572;10.174;2023-12-20T06:06:32;6.80;93.50
3298;DHT22;1661;53.572;10.174;2023-12-20T06:08:59;6.80;93.60
3298;DHT22;1661;53.572;10.174;2023-12-20T06:11:26;6.90;93.40
3298;DHT22;1661;53.572;10.174;2023-12-20T06:13:53;6.90;93.40
3298;DHT22;1661;53.572;10.174;2023-12-20T06:16:19;6.90;93.50
3298;DHT22;1661;53.572;10.174;2023-12-20T06:18:46;6.80;93.50
3298;DHT22;1661;53.572;10.174;2023-12-20T06:21:13;6.80;93.50
3298;DHT22;1661;53.572;10.174;2023-12-20T06:23:41;6.90;93.40
3298;DHT22;1661;53.572;10.174;2023-12-20T06:26:08;7.00;93.20
3298;DHT22;1661;53.572;10.174;2023-12-20T06:28:34;7.10;93.00
3298;DHT22;1661;53.572;10.174;2023-12-20T06:31:01;7.10;92.40
3298;DHT22;1661;53.572;10.174;2023-12-20T06:33:28;7.00;92.40
3298;DHT22;1661;53.572;10.174;2023-12-20T06:35:56;7.00;92.30
3298;DHT22;1661;53.572;10.174;2023-12-20T06:38:23;7.00;92.00
3298;DHT22;1661;53.572;10.174;2023-12-20T06:40:51;7.00;91.80
3298;DHT22;1661;53.572;10.174;2023-12-20T06:43:18;6.90;91.80
3298;DHT22;1661;53.572;10.174;2023-12-20T06:45:44;6.80;92.20
3298;DHT22;1661;53.572;10.174;2023-12-20T06:48:11;6.80;92.50
3298;DHT22;1661;53.572;10.174;2023-12-20T06:50:39;6.90;92.20
3298;DHT22;1661;53.572;10.174;2023-12-20T06:53:06;6.90;92.10
3298;DHT22;1661;53.572;10.174;2023-12-20T06:55:33;7.00;91.80
3298;DHT22;1661;53.572;10.174;2023-12-20T06:58:02;6.90;91.90
3298;DHT22;1661;53.572;10.174;2023-12-20T07:00:29;6.90;92.10
3298;DHT22;1661;53.572;10.174;2023-12-20T07:02:55;6.90;91.90
3298;DHT22;1661;53.572;10.174;2023-12-20T07:05:22;7.00;91.90
3298;DHT22;1661;53.572;10.174;2023-12-20T07:07:49;6.90;91.90
3298;DHT22;1661;53.572;10.174;2023-12-20T07:10:16;6.80;92.30
3298;DHT22;1661;53.572;10.174;2023-12-20T07:12:42;6.80;92.50
3298;DHT22;1661;53.572;10.174;2023-12-20T07:15:11;6.90;92.50
3298;DHT22;1661;53.572;10.174;2023-12-20T07:17:38;6.90;92.30
3298;DHT22;1661;53.572;10.174;2023-12-20T07:20:07;6.90;92.30
3298;DHT22;1661;53.572;10.174;2023-12-20T07:22:36;6.90;92.40
3298;DHT22;1661;53.572;10.174;2023-12-20T07:25:03;6.90;91.90
3298;DHT22;1661;53.572;10.174;2023-12-20T07:27:30;6.80;91.80
3298;DHT22;1661;53.572;10.174;2023-12-20T07:29:57;6.90;91.90
3298;DHT22;1661;53.572;10.174;2023-12-20T07:32:25;6.90;92.10
3298;DHT22;1661;53.572;10.174;2023-12-20T07:34:52;6.90;92.10
3298;DHT22;1661;53.572;10.174;2023-12-20T07:37:20;7.00;91.80
3298;DHT22;1661;53.572;10.174;2023-12-20T07:39:47;7.00;91.80
3298;DHT22;1661;53.572;10.174;2023-12-20T07:42:14;7.00;92.00
3298;DHT22;1661;53.572;10.174;2023-12-20T07:44:40;7.00;91.90
3298;DHT22;1661;53.572;10.174;2023-12-20T07:47:07;7.00;91.90
3298;DHT22;1661;53.572;10.174;2023-12-20T07:49:35;7.00;91.80
3298;DHT22;1661;53.572;10.174;2023-12-20T07:52:02;7.00;92.00
3298;DHT22;1661;53.572;10.174;2023-12-20T07:54:29;7.00;91.70
3298;DHT22;1661;53.572;10.174;2023-12-20T07:56:57;7.00;91.80
3298;DHT22;1661;53.572;10.174;2023-12-20T07:59:24;7.00;92.00
3298;DHT22;1661;53.572;10.174;2023-12-20T08:01:51;7.00;92.00
3298;DHT22;1661;53.572;10.174;2023-12-20T08:04:17;7.00;91.90
3298;DHT22;1661;53.572;10.174;2023-12-20T08:06:45;7.00;92.10
3298;DHT22;1661;53.572;10.174;2023-12-20T08:09:12;7.00;92.10
3298;DHT22;1661;53.572;10.174;2023-12-20T08:11:39;7.00;92.30
3298;DHT22;1661;53.572;10.174;2023-12-20T08:14:06;7.10;91.70
3298;DHT22;1661;53.572;10.174;2023-12-20T08:16:32;7.00;92.00
3298;DHT22;1661;53.572;10.174;2023-12-20T08:18:59;7.10;92.10
3298;DHT22;1661;53.572;10.174;2023-12-20T08:21:26;7.10;92.30
3298;DHT22;1661;53.572;10.174;2023-12-20T08:23:54;7.10;91.90
3298;DHT22;1661;53.572;10.174;2023-12-20T08:26:21;7.10;91.50
3298;DHT22;1661;53.572;10.174;2023-12-20T08:28:48;7.10;91.70
3298;DHT22;1661;53.572;10.174;2023-12-20T08:31:15;7.10;91.70
3298;DHT22;1661;53.572;10.174;2023-12-20T08:33:43;7.20;91.70
3298;DHT22;1661;53.572;10.174;2023-12-20T08:36:10;7.10;91.70
3298;DHT22;1661;53.572;10.174;2023-12-20T08:38:36;7.10;91.40
3298;DHT22;1661;53.572;10.174;2023-12-20T08:41:05;7.20;91.40
3298;DHT22;1661;53.572;10.174;2023-12-20T08:43:33;7.30;91.60
3298;DHT22;1661;53.572;10.174;2023-12-20T08:46:00;7.30;91.00
3298;DHT22;1661;53.572;10.174;2023-12-20T08:48:28;7.30;91.00
3298;DHT22;1661;53.572;10.174;2023-12-20T08:50:54;7.20;91.30
3298;DHT22;1661;53.572;10.174;2023-12-20T08:53:21;7.20;91.60
3298;DHT22;1661;53.572;10.174;2023-12-20T08:55:48;7.30;91.50
3298;DHT22;1661;53.572;10.174;2023-12-20T08:58:16;7.30;91.30
3298;DHT22;1661;53.572;10.174;2023-12-20T09:00:43;7.30;91.60
3298;DHT22;1661;53.572;10.174;2023-12-20T09:03:11;7.30;91.70
3298;DHT22;1661;53.572;10.174;2023-12-20T09:05:38;7.40;91.80
3298;DHT22;1661;53.572;10.174;2023-12-20T09:08:05;7.40;91.70
3298;DHT22;1661;53.572;10.174;2023-12-20T09:10:33;7.40;91.90
3298;DHT22;1661;53.572;10.174;2023-12-20T09:13:00;7.30;92.00
3298;DHT22;1661;53.572;10.174;2023-12-20T09:15:28;7.20;92.30
3298;DHT22;1661;53.572;10.174;2023-12-20T09:17:55;7.20;92.80
3298;DHT22;1661;53.572;10.174;2023-12-20T09:20:22;7.20;92.60
3298;DHT22;1661;53.572;10.174;2023-12-20T09:22:49;7.20;92.60
3298;DHT22;1661;53.572;10.174;2023-12-20T09:25:16;7.20;92.70
3298;DHT22;1661;53.572;10.174;2023-12-20T09:27:43;7.20;92.50
3298;DHT22;1661;53.572;10.174;2023-12-20T09:30:10;7.20;92.80
3298;DHT22;1661;53.572;10.174;2023-12-20T09:32:38;7.20;92.80
3298;DHT22;1661;53.572;10.174;2023-12-20T09:35:05;7.10;93.00
3298;DHT22;1661;53.572;10.174;2023-12-20T09:37:34;7.10;93.10
3298;DHT22;1661;53.572;10.174;2023-12-20T09:40:01;6.90;93.00
3298;DHT22;1661;53.572;10.174;2023-12-20T09:42:37;6.90;93.30
3298;DHT22;1661;53.572;10.174;2023-12-20T09:45:08;6.80;93.40
3298;DHT22;1661;53.572;10.174;2023-12-20T09:47:35;6.80;93.30
3298;DHT22;1661;53.572;10.174;2023-12-20T09:50:04;6.80;93.40
3298;DHT22;1661;53.572;10.174;2023-12-20T09:52:32;6.90;93.50
3298;DHT22;1661;53.572;10.174;2023-12-20T09:55:00;6.90;93.70
3298;DHT22;1661;53.572;10.174;2023-12-20T09:57:29;7.00;93.90
3298;DHT22;1661;53.572;10.174;2023-12-20T09:59:56;7.00;93.70
3298;DHT22;1661;53.572;10.174;2023-12-20T10:02:25;7.00;93.00
3298;DHT22;1661;53.572;10.174;2023-12-20T10:04:54;7.00;92.40
3298;DHT22;1661;53.572;10.174;2023-12-20T10:07:22;6.90;91.90
3298;DHT22;1661;53.572;10.174;2023-12-20T10:09:49;7.00;91.80
3298;DHT22;1661;53.572;10.174;2023-12-20T10:12:17;6.80;90.40
3298;DHT22;1661;53.572;10.174;2023-12-20T10:14:44;6.70;90.60
3298;DHT22;1661;53.572;10.174;2023-12-20T10:17:11;6.80;90.80
3298;DHT22;1661;53.572;10.174;2023-12-20T10:19:37;6.80;90.80
3298;DHT22;1661;53.572;10.174;2023-12-20T10:22:04;6.80;90.30
3298;DHT22;1661;53.572;10.174;2023-12-20T10:24:32;6.70;90.00
3298;DHT22;1661;53.572;10.174;2023-12-20T10:27:03;6.70;90.10
3298;DHT22;1661;53.572;10.174;2023-12-20T10:29:32;6.70;90.10
3298;DHT22;1661;53.572;10.174;2023-12-20T10:31:59;6.70;90.40
3298;DHT22;1661;53.572;10.174;2023-12-20T10:34:26;6.70;90.50
3298;DHT22;1661;53.572;10.174;2023-12-20T10:36:53;6.70;89.80
3298;DHT22;1661;53.572;10.174;2023-12-20T10:39:21;6.70;89.90
3298;DHT22;1661;53.572;10.174;2023-12-20T10:41:49;6.70;89.80
3298;DHT22;1661;53.572;10.174;2023-12-20T10:44:16;6.80;89.60
3298;DHT22;1661;53.572;10.174;2023-12-20T10:46:43;6.80;89.30
3298;DHT22;1661;53.572;10.174;2023-12-20T10:49:17;6.80;89.30
3298;DHT22;1661;53.572;10.174;2023-12-20T10:51:47;6.90;89.30
3298;DHT22;1661;53.572;10.174;2023-12-20T10:54:14;6.90;89.10
3298;DHT22;1661;53.572;10.174;2023-12-20T10:56:41;6.90;89.00
3298;DHT22;1661;53.572;10.174;2023-12-20T10:59:11;6.90;88.90
3298;DHT22;1661;53.572;10.174;2023-12-20T11:01:38;6.90;89.10
3298;DHT22;1661;53.572;10.174;2023-12-20T11:04:10;6.90;89.00
3298;DHT22;1661;53.572;10.174;2023-12-20T11:06:45;7.00;88.80
3298;DHT22;1661;53.572;10.174;2023-12-20T11:09:17;6.90;88.70
3298;DHT22;1661;53.572;10.174;2023-12-20T11:11:56;7.00;88.70
3298;DHT22;1661;53.572;10.174;2023-12-20T11:14:29;7.00;88.80
3298;DHT22;1661;53.572;10.174;2023-12-20T11:17:08;7.00;88.70
3298;DHT22;1661;53.572;10.174;2023-12-20T11:19:37;7.00;89.10
3298;DHT22;1661;53.572;10.174;2023-12-20T11:22:04;6.90;89.50
3298;DHT22;1661;53.572;10.174;2023-12-20T11:24:33;6.90;89.90
3298;DHT22;1661;53.572;10.174;2023-12-20T11:27:03;6.90;90.10
3298;DHT22;1661;53.572;10.174;2023-12-20T11:29:35;6.70;90.40
3298;DHT22;1661;53.572;10.174;2023-12-20T11:32:03;6.70;90.90
3298;DHT22;1661;53.572;10.174;2023-12-20T11:34:32;6.60;90.90
3298;DHT22;1661;53.572;10.174;2023-12-20T11:37:00;6.50;91.10
3298;DHT22;1661;53.572;10.174;2023-12-20T11:39:28;6.30;91.50
3298;DHT22;1661;53.572;10.174;2023-12-20T11:41:55;6.30;92.00
3298;DHT22;1661;53.572;10.174;2023-12-20T11:44:25;6.30;91.90
3298;DHT22;1661;53.572;10.174;2023-12-20T11:46:54;6.30;91.60
3298;DHT22;1661;53.572;10.174;2023-12-20T11:49:23;6.40;91.50
3298;DHT22;1661;53.572;10.174;2023-12-20T11:51:51;6.40;91.30
3298;DHT22;1661;53.572;10.174;2023-12-20T11:54:18;6.50;91.20
3298;DHT22;1661;53.572;10.174;2023-12-20T11:56:45;6.60;90.90
3298;DHT22;1661;53.572;10.174;2023-12-20T11:59:13;6.60;90.40
3298;DHT22;1661;53.572;10.174;2023-12-20T12:01:39;6.70;90.10
3298;DHT22;1661;53.572;10.174;2023-12-20T12:04:07;6.70;90.30
3298;DHT22;1661;53.572;10.174;2023-12-20T12:06:35;6.70;90.50
3298;DHT22;1661;53.572;10.174;2023-12-20T12:09:02;6.80;90.50
3298;DHT22;1661;53.572;10.174;2023-12-20T12:11:30;6.90;90.20
3298;DHT22;1661;53.572;10.174;2023-12-20T12:13:57;6.90;90.50
3298;DHT22;1661;53.572;10.174;2023-12-20T12:16:23;6.80;90.80
3298;DHT22;1661;53.572;10.174;2023-12-20T12:18:57;6.80;91.20
3298;DHT22;1661;53.572;10.174;2023-12-20T12:21:26;6.70;91.60
3298;DHT22;1661;53.572;10.174;2023-12-20T12:23:52;6.70;91.50
3298;DHT22;1661;53.572;10.174;2023-12-20T12:26:19;6.60;91.90
3298;DHT22;1661;53.572;10.174;2023-12-20T12:28:46;6.70;91.90
3298;DHT22;1661;53.572;10.174;2023-12-20T12:31:14;6.80;91.80
3298;DHT22;1661;53.572;10.174;2023-12-20T12:33:42;6.90;91.70
3298;DHT22;1661;53.572;10.174;2023-12-20T12:36:09;7.00;91.60
3298;DHT22;1661;53.572;10.174;2023-12-20T12:38:38;7.10;91.50
3298;DHT22;1661;53.572;10.174;2023-12-20T12:41:05;7.20;91.10
3298;DHT22;1661;53.572;10.174;2023-12-20T12:43:32;7.30;90.70
3298;DHT22;1661;53.572;10.174;2023-12-20T12:46:00;7.30;90.60
3298;DHT22;1661;53.572;10.174;2023-12-20T12:48:27;7.30;90.30
3298;DHT22;1661;53.572;10.174;2023-12-20T12:50:54;7.20;90.20
3298;DHT22;1661;53.572;10.174;2023-12-20T12:53:25;7.30;90.10
3298;DHT22;1661;53.572;10.174;2023-12-20T12:55:54;7.30;89.70
3298;DHT22;1661;53.572;10.174;2023-12-20T12:58:21;7.30;89.50
3298;DHT22;1661;53.572;10.174;2023-12-20T13:00:47;7.30;88.30
3298;DHT22;1661;53.572;10.174;2023-12-20T13:03:14;7.30;88.20
3298;DHT22;1661;53.572;10.174;2023-12-20T13:05:42;7.20;87.40
3298;DHT22;1661;53.572;10.174;2023-12-20T13:08:09;7.00;87.80
3298;DHT22;1661;53.572;10.174;2023-12-20T13:10:37;7.10;88.30
3298;DHT22;1661;53.572;10.174;2023-12-20T13:13:05;7.10;88.10
3298;DHT22;1661;53.572;10.174;2023-12-20T13:15:32;7.10;88.10
3298;DHT22;1661;53.572;10.174;2023-12-20T13:17:59;7.20;88.20
3298;DHT22;1661;53.572;10.174;2023-12-20T13:20:26;7.20;87.50
3298;DHT22;1661;53.572;10.174;2023-12-20T13:22:53;7.30;87.30
3298;DHT22;1661;53.572;10.174;2023-12-20T13:25:20;7.20;86.40
3298;DHT22;1661;53.572;10.174;2023-12-20T13:27:47;7.20;87.00
3298;DHT22;1661;53.572;10.174;2023-12-20T13:30:16;7.30;86.80
3298;DHT22;1661;53.572;10.174;2023-12-20T13:32:42;7.20;86.60
3298;DHT22;1661;53.572;10.174;2023-12-20T13:35:09;7.20;86.60
3298;DHT22;1661;53.572;10.174;2023-12-20T13:37:36;7.10;86.20
3298;DHT22;1661;53.572;10.174;2023-12-20T13:40:04;7.20;86.60
3298;DHT22;1661;53.572;10.174;2023-12-20T13:42:31;7.20;86.40
3298;DHT22;1661;53.572;10.174;2023-12-20T13:44:58;7.20;86.00
3298;DHT22;1661;53.572;10.174;2023-12-20T13:47:26;7.30;86.10
3298;DHT22;1661;53.572;10.174;2023-12-20T13:49:53;7.30;86.30
3298;DHT22;1661;53.572;10.174;2023-12-20T13:52:21;7.20;85.70
3298;DHT22;1661;53.572;10.174;2023-12-20T13:54:48;7.20;86.00
3298;DHT22;1661;53.572;10.174;2023-12-20T13:57:15;7.30;86.00
3298;DHT22;1661;53.572;10.174;2023-12-20T13:59:42;7.20;85.70
3298;DHT22;1661;53.572;10.174;2023-12-20T14:02:09;7.10;85.10
3298;DHT22;1661;53.572;10.174;2023-12-20T14:04:39;7.10;85.60
3298;DHT22;1661;53.572;10.174;2023-12-20T14:07:06;7.10;85.80
3298;DHT22;1661;53.572;10.174;2023-12-20T14:09:35;7.10;85.90
3298;DHT22;1661;53.572;10.174;2023-12-20T14:12:02;7.10;84.90
3298;DHT22;1661;53.572;10.174;2023-12-20T14:14:28;7.10;85.60
3298;DHT22;1661;53.572;10.174;2023-12-20T14:16:55;7.10;85.70
3298;DHT22;1661;53.572;10.174;2023-12-20T14:19:22;7.10;85.70
3298;DHT22;1661;53.572;10.174;2023-12-20T14:21:50;7.00;85.60
3298;DHT22;1661;53.572;10.174;2023-12-20T14:24:17;7.00;85.80
3298;DHT22;1661;53.572;10.174;2023-12-20T14:26:43;7.00;85.90
3298;DHT22;1661;53.572;10.174;2023-12-20T14:29:10;7.00;85.80
3298;DHT22;1661;53.572;10.174;2023-12-20T14:31:37;7.10;85.90
3298;DHT22;1661;53.572;10.174;2023-12-20T14:34:05;7.00;85.50
3298;DHT22;1661;53.572;10.174;2023-12-20T14:36:32;7.00;84.90
3298;DHT22;1661;53.572;10.174;2023-12-20T14:39:00;7.00;85.00
3298;DHT22;1661;53.572;10.174;2023-12-20T14:41:28;7.00;85.20
3298;DHT22;1661;53.572;10.174;2023-12-20T14:43:55;7.00;84.70
3298;DHT22;1661;53.572;10.174;2023-12-20T14:46:22;6.90;84.40
3298;DHT22;1661;53.572;10.174;2023-12-20T14:48:48;7.00;84.70
3298;DHT22;1661;53.572;10.174;2023-12-20T14:51:15;6.90;84.30
3298;DHT22;1661;53.572;10.174;2023-12-20T14:53:42;6.80;83.70
3298;DHT22;1661;53.572;10.174;2023-12-20T14:56:10;6.80;83.80
3298;DHT22;1661;53.572;10.174;2023-12-20T14:58:37;6.60;82.80
3298;DHT22;1661;53.572;10.174;2023-12-20T15:01:04;6.60;83.90
3298;DHT22;1661;53.572;10.174;2023-12-20T15:03:33;6.70;84.20
3298;DHT22;1661;53.572;10.174;2023-12-20T15:06:00;6.60;83.30
3298;DHT22;1661;53.572;10.174;2023-12-20T15:08:26;6.50;84.50
3298;DHT22;1661;53.572;10.174;2023-12-20T15:10:53;6.50;84.40
3298;DHT22;1661;53.572;10.174;2023-12-20T15:13:21;6.60;84.00
3298;DHT22;1661;53.572;10.174;2023-12-20T15:15:48;6.60;84.40
3298;DHT22;1661;53.572;10.174;2023-12-20T15:18:15;6.50;83.20
3298;DHT22;1661;53.572;10.174;2023-12-20T15:20:41;6.60;83.80
3298;DHT22;1661;53.572;10.174;2023-12-20T15:23:10;6.70;83.80
3298;DHT22;1661;53.572;10.174;2023-12-20T15:25:37;6.70;83.90
3298;DHT22;1661;53.572;10.174;2023-12-20T15:28:04;6.80;84.00
3298;DHT22;1661;53.572;10.174;2023-12-20T15:30:33;6.80;84.20
3298;DHT22;1661;53.572;10.174;2023-12-20T15:33:00;6.80;83.70
3298;DHT22;1661;53.572;10.174;2023-12-20T15:35:28;6.80;83.60
3298;DHT22;1661;53.572;10.174;2023-12-20T15:37:58;6.80;83.90
3298;DHT22;1661;53.572;10.174;2023-12-20T15:40:25;6.80;83.90
3298;DHT22;1661;53.572;10.174;2023-12-20T15:42:51;6.80;83.70
3298;DHT22;1661;53.572;10.174;2023-12-20T15:45:19;6.80;83.60
3298;DHT22;1661;53.572;10.174;2023-12-20T15:47:47;6.90;83.80
3298;DHT22;1661;53.572;10.174;2023-12-20T15:50:14;6.90;83.80
3298;DHT22;1661;53.572;10.174;2023-12-20T15:52:42;6.90;83.90
3298;DHT22;1661;53.572;10.174;2023-12-20T15:55:09;6.90;83.80
3298;DHT22;1661;53.572;10.174;2023-12-20T15:57:36;6.90;83.80
3298;DHT22;1661;53.572;10.174;2023-12-20T16:00:04;6.90;83.80
3298;DHT22;1661;53.572;10.174;2023-12-20T16:02:31;6.90;83.90